Time;durP1;ratioP1;P1;durP2;ratioP2;P2;SDS_P1;SDS_P2;PMS_P1;PMS_P2;Temp;Humidity;BMP_temperature;BMP_pressure;BME280_temperature;BME280_humidity;BME280_pressure;Samples;Min_cycle;Max_cycle;Signal;HPM_P1;HPM_P2
2022/07/12 00:00:47;;;;;;;29.10;16.10;;;10.00;99.90;;;;;;5017712;28;20029;-60
2022/07/12 00:03:14;;;;;;;27.30;14.30;;;10.00;99.90;;;;;;5009480;28;20116;-59
2022/07/12 00:05:42;;;;;;;20.92;12.25;;;10.00;99.90;;;;;;5010132;28;20072;-60
2022/07/12 00:08:09;;;;;;;21.13;11.48;;;10.20;99.90;;;;;;5015249;28;20144;-61
2022/07/12 00:10:37;;;;;;;16.40;9.05;;;10.20;99.60;;;;;;4993954;28;20037;-57
2022/07/12 00:13:05;;;;;;;14.63;8.75;;;10.20;99.50;;;;;;4998505;28;20513;-58
2022/07/12 00:15:32;;;;;;;17.13;8.93;;;10.30;99.30;;;;;;5010502;28;20395;-58
2022/07/12 00:17:59;;;;;;;13.70;7.85;;;10.30;98.70;;;;;;5008496;28;20022;-59
2022/07/12 00:20:27;;;;;;;20.83;9.85;;;10.30;98.30;;;;;;5008896;28;20026;-59
2022/07/12 00:22:54;;;;;;;14.15;8.20;;;10.40;98.60;;;;;;5008206;28;20040;-60
2022/07/12 00:25:21;;;;;;;13.07;9.23;;;10.40;98.20;;;;;;5009133;28;20095;-60
2022/07/12 00:27:49;;;;;;;19.15;10.18;;;10.50;97.80;;;;;;5010221;28;20010;-60
2022/07/12 00:30:17;;;;;;;16.08;10.55;;;10.60;97.90;;;;;;5010123;28;20026;-61
2022/07/12 00:32:44;;;;;;;18.98;10.15;;;10.70;97.60;;;;;;5010155;28;20034;-61
2022/07/12 00:35:12;;;;;;;16.38;10.82;;;10.80;97.20;;;;;;5010399;28;20569;-60
2022/07/12 00:37:39;;;;;;;16.00;10.57;;;10.90;97.80;;;;;;5009912;28;20065;-60
2022/07/12 00:40:11;;;;;;;21.08;10.43;;;11.00;97.90;;;;;;5008609;28;20022;-61
2022/07/12 00:42:39;;;;;;;17.52;10.90;;;11.10;96.70;;;;;;5010213;28;20030;-62
2022/07/12 00:45:08;;;;;;;14.95;10.82;;;11.10;96.40;;;;;;5009860;28;20026;-62
2022/07/12 00:47:42;;;;;;;13.75;9.07;;;11.20;97.00;;;;;;5009384;28;20061;-52
2022/07/12 00:50:16;;;;;;;15.70;9.63;;;11.30;96.60;;;;;;5009908;28;20029;-57
2022/07/12 00:52:47;;;;;;;13.38;9.30;;;11.50;96.80;;;;;;5002696;28;20038;-54
2022/07/12 00:55:16;;;;;;;14.02;8.32;;;11.60;96.00;;;;;;5006134;28;20021;-55
2022/07/12 00:57:44;;;;;;;11.88;8.00;;;11.70;95.60;;;;;;5008187;28;20026;-55
2022/07/12 01:00:21;;;;;;;15.65;7.63;;;11.80;95.70;;;;;;5008966;28;20124;-54
2022/07/12 01:02:48;;;;;;;11.00;6.35;;;11.80;95.20;;;;;;5006701;28;20029;-53
2022/07/12 01:05:16;;;;;;;8.35;6.05;;;11.90;94.50;;;;;;5001533;28;20155;-53
2022/07/12 01:07:44;;;;;;;13.27;7.72;;;11.80;93.60;;;;;;4997005;28;20026;-54
2022/07/12 01:10:12;;;;;;;12.18;7.53;;;12.00;94.60;;;;;;4999169;28;20172;-53
2022/07/12 01:12:39;;;;;;;10.00;6.40;;;12.00;94.20;;;;;;4998781;28;20030;-55
2022/07/12 01:15:14;;;;;;;10.90;7.00;;;12.10;92.80;;;;;;4998488;28;20027;-54
2022/07/12 01:17:42;;;;;;;10.57;7.60;;;12.10;92.90;;;;;;5000017;28;20101;-51
2022/07/12 01:20:09;;;;;;;11.75;8.25;;;12.30;93.60;;;;;;4996750;28;20495;-56
2022/07/12 01:22:42;;;;;;;11.82;8.07;;;12.30;93.00;;;;;;5001362;28;20033;-52
2022/07/12 01:25:10;;;;;;;13.88;7.53;;;12.40;92.40;;;;;;5004623;28;20049;-55
2022/07/12 01:27:39;;;;;;;12.82;9.43;;;12.60;93.80;;;;;;5005080;28;20141;-57
2022/07/12 01:30:06;;;;;;;10.40;6.78;;;12.80;92.30;;;;;;5007079;28;20026;-57
2022/07/12 01:32:34;;;;;;;9.82;6.85;;;12.70;91.50;;;;;;5010769;28;20042;-52
2022/07/12 01:35:05;;;;;;;12.02;7.72;;;12.80;92.20;;;;;;5009784;28;20121;-57
2022/07/12 01:37:45;;;;;;;12.57;7.47;;;13.00;92.60;;;;;;5010975;28;20100;-53
2022/07/12 01:40:14;;;;;;;9.73;7.07;;;13.10;92.60;;;;;;5009700;28;20069;-55
2022/07/12 01:42:44;;;;;;;9.35;7.13;;;13.30;93.10;;;;;;5011296;28;20371;-55
2022/07/12 01:45:12;;;;;;;10.40;5.88;;;13.40;91.20;;;;;;5009671;28;20014;-53
2022/07/12 01:47:40;;;;;;;9.77;6.05;;;13.40;91.10;;;;;;5011979;28;20053;-56
2022/07/12 01:50:09;;;;;;;12.68;6.72;;;13.50;90.80;;;;;;5009720;28;20015;-50
2022/07/12 01:52:39;;;;;;;9.02;4.93;;;13.60;91.70;;;;;;5000560;28;20415;-55
2022/07/12 01:55:07;;;;;;;6.72;4.47;;;13.60;88.90;;;;;;5000784;28;20034;-50
2022/07/12 01:57:35;;;;;;;6.65;4.05;;;13.80;90.90;;;;;;4999517;28;20108;-51
2022/07/12 02:00:05;;;;;;;6.55;3.75;;;14.00;87.90;;;;;;5002725;28;20097;-51
2022/07/12 02:02:33;;;;;;;8.38;3.75;;;14.00;84.50;;;;;;5004499;28;20036;-49
2022/07/12 02:05:02;;;;;;;4.97;3.17;;;14.10;86.70;;;;;;5012587;28;20080;-48
2022/07/12 02:07:29;;;;;;;5.03;2.53;;;14.30;84.70;;;;;;5007582;28;20026;-53
2022/07/12 02:09:57;;;;;;;6.95;2.85;;;14.50;86.70;;;;;;5007457;28;20048;-53
2022/07/12 02:12:25;;;;;;;7.40;2.60;;;14.70;83.90;;;;;;5011819;28;20029;-50
2022/07/12 02:14:53;;;;;;;5.38;2.30;;;14.90;83.00;;;;;;4999241;28;20030;-55
2022/07/12 02:17:20;;;;;;;5.40;1.92;;;15.10;83.60;;;;;;5000338;28;20026;-54
2022/07/12 02:19:47;;;;;;;5.88;2.25;;;15.30;82.90;;;;;;4998221;28;20027;-55
2022/07/12 02:22:15;;;;;;;5.03;2.55;;;15.30;79.40;;;;;;5006545;28;20108;-59
2022/07/12 02:24:42;;;;;;;3.45;2.15;;;15.30;76.90;;;;;;5013704;28;20383;-58
2022/07/12 02:27:09;;;;;;;4.38;2.75;;;15.30;77.00;;;;;;5024690;28;20030;-58
2022/07/12 02:29:36;;;;;;;3.78;2.28;;;15.20;76.20;;;;;;5015974;28;20064;-58
2022/07/12 02:32:04;;;;;;;6.40;1.70;;;15.10;76.80;;;;;;5009531;28;20044;-59
2022/07/12 02:34:32;;;;;;;5.47;1.83;;;15.00;75.70;;;;;;5005626;28;20026;-59
2022/07/12 02:36:59;;;;;;;4.35;1.55;;;15.10;78.50;;;;;;5006222;28;20032;-59
2022/07/12 02:39:26;;;;;;;3.10;1.38;;;15.20;77.90;;;;;;5004136;28;20026;-58
2022/07/12 02:41:54;;;;;;;4.25;1.90;;;15.30;76.60;;;;;;5002746;28;20030;-58
2022/07/12 02:44:21;;;;;;;4.22;1.65;;;15.40;77.80;;;;;;5019682;28;20028;-60
2022/07/12 02:46:48;;;;;;;2.75;1.65;;;15.50;77.50;;;;;;5021545;28;20614;-59
2022/07/12 02:49:15;;;;;;;3.95;1.73;;;15.50;75.20;;;;;;5016318;28;20113;-59
2022/07/12 02:51:43;;;;;;;3.38;1.38;;;15.50;77.50;;;;;;5001556;28;20033;-60
2022/07/12 02:54:10;;;;;;;4.82;1.60;;;15.60;74.80;;;;;;5007653;28;20467;-57
2022/07/12 02:56:37;;;;;;;2.67;1.40;;;15.60;76.80;;;;;;5016116;28;20513;-58
2022/07/12 02:59:04;;;;;;;2.78;1.45;;;15.70;76.50;;;;;;5017834;28;20470;-56
2022/07/12 03:01:31;;;;;;;4.78;1.40;;;15.90;78.50;;;;;;5020440;28;20030;-55
2022/07/12 03:03:59;;;;;;;5.18;1.50;;;16.00;74.80;;;;;;5024106;28;20085;-54
2022/07/12 03:06:26;;;;;;;2.88;1.50;;;16.00;74.30;;;;;;5014288;28;20030;-55
2022/07/12 03:08:53;;;;;;;2.47;1.23;;;16.00;75.50;;;;;;5016500;28;20026;-58
2022/07/12 03:11:20;;;;;;;3.65;1.30;;;16.00;73.80;;;;;;5022545;28;20037;-56
2022/07/12 03:13:48;;;;;;;2.38;1.67;;;16.00;74.90;;;;;;5023554;28;20091;-57
2022/07/12 03:16:15;;;;;;;3.58;1.27;;;16.10;76.60;;;;;;5011418;28;20104;-55
2022/07/12 03:18:43;;;;;;;2.80;1.20;;;16.00;74.50;;;;;;5007373;28;20481;-60
2022/07/12 03:21:11;;;;;;;5.32;1.73;;;16.10;77.50;;;;;;5022603;28;20022;-60
2022/07/12 03:23:39;;;;;;;1.90;1.08;;;16.10;71.70;;;;;;5019213;28;20035;-61
2022/07/12 03:26:08;;;;;;;2.28;1.05;;;16.00;71.10;;;;;;5011719;28;20045;-61
2022/07/12 03:28:35;;;;;;;3.72;1.33;;;16.10;71.30;;;;;;5011061;28;20076;-61
2022/07/12 03:31:02;;;;;;;5.47;1.25;;;16.10;72.30;;;;;;5022275;28;20033;-61
2022/07/12 03:33:29;;;;;;;1.92;1.08;;;16.00;69.50;;;;;;5008577;28;20080;-60
2022/07/12 03:35:57;;;;;;;4.15;1.40;;;16.20;70.50;;;;;;5010994;28;20076;-62
2022/07/12 03:38:24;;;;;;;3.20;1.65;;;16.20;67.10;;;;;;5025075;28;20030;-59
2022/07/12 03:40:51;;;;;;;3.00;1.05;;;16.20;69.00;;;;;;5006314;28;20079;-60
2022/07/12 03:43:19;;;;;;;3.83;1.38;;;16.20;66.60;;;;;;5013684;28;20601;-61
2022/07/12 03:45:46;;;;;;;3.75;1.30;;;16.20;67.10;;;;;;5010625;28;20119;-60
2022/07/12 03:48:13;;;;;;;2.33;1.05;;;16.30;65.20;;;;;;5015067;28;20380;-60
2022/07/12 03:50:40;;;;;;;4.00;1.30;;;16.20;65.40;;;;;;5017745;28;20529;-60
2022/07/12 03:53:08;;;;;;;2.70;1.20;;;16.20;66.10;;;;;;5021707;28;20469;-62
2022/07/12 03:55:35;;;;;;;3.72;1.13;;;16.20;66.80;;;;;;5020243;28;20078;-60
2022/07/12 03:58:02;;;;;;;2.15;0.90;;;16.20;63.80;;;;;;5015194;28;20037;-61
2022/07/12 04:00:30;;;;;;;2.42;0.75;;;16.10;64.10;;;;;;5014554;28;20481;-61
2022/07/12 04:02:57;;;;;;;7.45;1.30;;;16.20;60.50;;;;;;4995067;28;20164;-61
2022/07/12 04:05:26;;;;;;;7.18;1.20;;;16.20;61.00;;;;;;5008417;28;20495;-61
2022/07/12 04:07:54;;;;;;;5.28;0.80;;;16.20;62.10;;;;;;5005401;28;20045;-61
2022/07/12 04:10:21;;;;;;;1.83;0.90;;;16.10;60.00;;;;;;5001362;28;20109;-62
2022/07/12 04:12:52;;;;;;;1.67;0.63;;;16.00;59.40;;;;;;5003374;28;20034;-61
2022/07/12 04:15:19;;;;;;;2.58;0.70;;;15.80;60.10;;;;;;5004699;28;20068;-61
2022/07/12 04:17:46;;;;;;;1.67;0.98;;;15.80;59.10;;;;;;5010455;28;20498;-61
2022/07/12 04:20:13;;;;;;;2.17;0.88;;;15.90;60.20;;;;;;5007718;28;20058;-61
2022/07/12 04:22:41;;;;;;;1.35;0.60;;;15.90;58.30;;;;;;5005924;28;20532;-61
2022/07/12 04:25:09;;;;;;;3.22;0.85;;;16.00;59.90;;;;;;5015195;28;20048;-61
2022/07/12 04:27:36;;;;;;;2.78;0.70;;;16.10;59.30;;;;;;5004224;28;20482;-61
2022/07/12 04:30:05;;;;;;;2.67;0.82;;;16.10;59.60;;;;;;5002372;28;20471;-62
2022/07/12 04:32:32;;;;;;;2.92;0.60;;;16.00;58.20;;;;;;5006008;28;20042;-62
2022/07/12 04:34:59;;;;;;;1.40;1.13;;;15.90;55.70;;;;;;5002226;28;20491;-61
2022/07/12 04:37:26;;;;;;;2.65;0.73;;;15.90;54.80;;;;;;5002868;28;20040;-61
2022/07/12 04:39:54;;;;;;;1.73;0.60;;;15.90;50.50;;;;;;5009036;28;20058;-60
2022/07/12 04:42:21;;;;;;;2.08;0.60;;;15.90;50.70;;;;;;5025757;28;20059;-62
2022/07/12 04:44:48;;;;;;;1.67;0.50;;;15.90;50.60;;;;;;5007954;28;20021;-61
2022/07/12 04:47:15;;;;;;;0.43;0.32;;;15.90;51.80;;;;;;5018552;28;20060;-61
2022/07/12 04:49:42;;;;;;;1.38;0.50;;;15.80;50.80;;;;;;5000524;28;20029;-61
2022/07/12 04:52:10;;;;;;;3.25;0.57;;;15.80;50.60;;;;;;5003057;28;20034;-62
2022/07/12 04:54:37;;;;;;;5.82;0.90;;;15.70;54.40;;;;;;5005071;28;20032;-61
2022/07/12 04:57:04;;;;;;;3.08;0.47;;;15.60;53.30;;;;;;5005387;28;20022;-62
2022/07/12 04:59:32;;;;;;;4.05;0.50;;;15.50;53.70;;;;;;5008323;28;20512;-62
2022/07/12 05:01:59;;;;;;;3.63;0.77;;;15.40;54.40;;;;;;5000159;28;20026;-62
2022/07/12 05:04:26;;;;;;;0.45;0.30;;;15.30;54.70;;;;;;5006801;28;20030;-62
2022/07/12 05:06:53;;;;;;;1.25;0.40;;;15.20;55.00;;;;;;5006269;28;20045;-62
2022/07/12 05:09:20;;;;;;;0.98;0.40;;;15.20;55.20;;;;;;5006078;28;20030;-62
2022/07/12 05:11:48;;;;;;;1.00;0.40;;;15.00;53.60;;;;;;5005525;28;20136;-63
2022/07/12 05:14:15;;;;;;;2.63;0.30;;;14.80;55.20;;;;;;5004443;28;20064;-62
2022/07/12 05:16:42;;;;;;;0.80;0.35;;;14.70;57.80;;;;;;5001957;28;20494;-62
2022/07/12 05:19:10;;;;;;;1.25;0.57;;;14.50;59.50;;;;;;5017469;28;20037;-62
2022/07/12 05:21:37;;;;;;;2.35;0.40;;;14.30;57.60;;;;;;5005097;28;20034;-62
2022/07/12 05:24:05;;;;;;;1.10;0.38;;;14.30;59.30;;;;;;5004146;28;20032;-62
2022/07/12 05:26:33;;;;;;;2.65;0.60;;;14.30;59.40;;;;;;5008284;28;20663;-62
2022/07/12 05:29:00;;;;;;;3.08;0.40;;;14.20;59.40;;;;;;5020614;28;20112;-62
2022/07/12 05:31:27;;;;;;;2.58;1.17;;;14.30;57.90;;;;;;5005738;28;20049;-61
2022/07/12 05:33:55;;;;;;;1.40;0.40;;;14.40;59.90;;;;;;5014797;28;20045;-61
2022/07/12 05:36:22;;;;;;;1.60;0.35;;;14.40;59.70;;;;;;5007927;28;20030;-65
2022/07/12 05:38:49;;;;;;;2.03;0.32;;;14.40;59.40;;;;;;5014237;28;20026;-68
2022/07/12 05:41:16;;;;;;;2.78;0.52;;;14.50;60.40;;;;;;5015483;28;20172;-68
2022/07/12 05:43:44;;;;;;;0.75;0.40;;;14.50;61.20;;;;;;5006903;28;20037;-67
2022/07/12 05:46:11;;;;;;;1.60;0.32;;;14.50;60.60;;;;;;5008598;28;20151;-67
2022/07/12 05:48:39;;;;;;;1.60;0.50;;;14.50;60.50;;;;;;5025214;28;20050;-67
2022/07/12 05:53:52;;;;;;;1.77;0.73;;;14.40;61.10;;;;;;5015293;28;20044;-67
2022/07/12 05:56:20;;;;;;;2.78;0.68;;;14.40;60.80;;;;;;5011595;28;20018;-67
2022/07/12 05:58:47;;;;;;;2.55;0.50;;;14.40;61.50;;;;;;5011036;28;20512;-67
2022/07/12 06:01:14;;;;;;;1.15;0.55;;;14.20;62.40;;;;;;5015550;28;20025;-67
2022/07/12 06:03:41;;;;;;;1.63;0.65;;;14.20;61.80;;;;;;5010153;28;20120;-67
2022/07/12 06:06:09;;;;;;;3.65;0.80;;;14.20;62.00;;;;;;5017217;28;20018;-67
2022/07/12 06:08:36;;;;;;;3.42;1.33;;;14.10;62.30;;;;;;5010787;28;20132;-67
2022/07/12 06:11:03;;;;;;;1.88;1.05;;;14.00;62.80;;;;;;5021957;28;20431;-67
2022/07/12 06:13:30;;;;;;;2.53;0.80;;;14.00;63.50;;;;;;5017769;28;20076;-67
2022/07/12 06:15:59;;;;;;;1.30;0.80;;;14.00;64.00;;;;;;5012752;28;20029;-67
2022/07/12 06:18:26;;;;;;;1.98;0.93;;;13.80;64.40;;;;;;5028636;28;20033;-67
2022/07/12 06:20:54;;;;;;;1.33;0.75;;;13.80;64.90;;;;;;5017565;28;20022;-67
2022/07/12 06:23:21;;;;;;;0.90;0.50;;;13.70;65.30;;;;;;5016063;28;20057;-67
2022/07/12 06:25:48;;;;;;;1.45;0.60;;;13.70;66.20;;;;;;5016882;28;20264;-67
2022/07/12 06:28:15;;;;;;;1.60;0.60;;;13.50;67.60;;;;;;5013627;28;20034;-67
2022/07/12 06:30:43;;;;;;;2.25;0.50;;;13.40;68.10;;;;;;5002365;28;20022;-67
2022/07/12 06:33:10;;;;;;;1.90;0.77;;;13.20;68.30;;;;;;5012762;28;20446;-67
2022/07/12 06:35:37;;;;;;;2.78;0.82;;;13.00;69.10;;;;;;5022713;28;20028;-67
2022/07/12 06:38:05;;;;;;;1.20;0.60;;;12.90;70.50;;;;;;5012080;28;20461;-67
2022/07/12 06:40:32;;;;;;;1.58;0.50;;;12.70;71.70;;;;;;5028243;28;20030;-68
2022/07/12 06:42:59;;;;;;;1.80;0.40;;;12.50;72.50;;;;;;5010850;28;20022;-67
2022/07/12 06:45:26;;;;;;;0.93;0.40;;;12.30;73.00;;;;;;5015229;28;20034;-68
2022/07/12 06:47:54;;;;;;;1.95;0.50;;;12.20;73.30;;;;;;5024021;28;20042;-68
2022/07/12 06:50:21;;;;;;;1.08;0.50;;;12.00;74.70;;;;;;5014737;28;20034;-67
2022/07/12 06:52:49;;;;;;;1.63;0.68;;;11.80;75.60;;;;;;5027179;28;20113;-67
2022/07/12 06:55:16;;;;;;;2.65;0.60;;;11.60;76.40;;;;;;5013929;28;20054;-66
2022/07/12 06:57:43;;;;;;;1.42;0.50;;;11.50;77.10;;;;;;5014080;28;20030;-67
2022/07/12 07:00:11;;;;;;;1.52;0.57;;;11.40;78.00;;;;;;5015071;28;20017;-67
2022/07/12 07:02:41;;;;;;;6.10;1.02;;;11.30;78.00;;;;;;5001745;28;20033;-67
2022/07/12 07:05:10;;;;;;;2.30;0.95;;;11.20;77.70;;;;;;5013582;28;20084;-66
2022/07/12 07:07:38;;;;;;;4.07;1.48;;;11.10;78.10;;;;;;5017376;28;20049;-66
2022/07/12 07:10:05;;;;;;;2.05;1.35;;;11.00;79.00;;;;;;5010348;28;20061;-67
2022/07/12 07:12:33;;;;;;;1.83;0.70;;;10.90;80.20;;;;;;5017235;28;20052;-66
2022/07/12 07:15:00;;;;;;;3.42;1.02;;;10.80;80.60;;;;;;5011633;28;20511;-71
2022/07/12 07:17:27;;;;;;;4.05;1.63;;;10.70;81.30;;;;;;5016666;28;20706;-67
2022/07/12 07:19:54;;;;;;;1.30;0.73;;;10.60;81.80;;;;;;5012014;28;20088;-66
2022/07/12 07:22:22;;;;;;;2.15;0.88;;;10.40;82.30;;;;;;5016897;28;20033;-66
2022/07/12 07:24:50;;;;;;;1.80;0.85;;;10.40;83.00;;;;;;5011971;28;20565;-66
2022/07/12 07:27:17;;;;;;;2.75;1.58;;;10.30;83.40;;;;;;5003038;28;20026;-66
2022/07/12 07:32:29;;;;;;;3.92;1.75;;;10.30;83.60;;;;;;5008883;28;20096;-67
2022/07/12 07:34:57;;;;;;;5.85;2.28;;;10.20;84.80;;;;;;5020598;28;20021;-67
2022/07/12 07:37:24;;;;;;;3.50;2.28;;;10.20;85.90;;;;;;5013114;28;20029;-67
2022/07/12 07:39:51;;;;;;;6.90;2.20;;;10.20;86.30;;;;;;5007281;28;20527;-67
2022/07/12 07:42:18;;;;;;;9.57;4.30;;;10.20;87.40;;;;;;5006027;28;20638;-67
2022/07/12 07:44:46;;;;;;;9.45;4.00;;;10.20;88.80;;;;;;5029273;28;20026;-66
2022/07/12 07:47:13;;;;;;;3.42;1.95;;;10.20;90.00;;;;;;5016821;28;20077;-66
2022/07/12 07:49:40;;;;;;;6.05;3.08;;;10.20;90.20;;;;;;5007549;28;20081;-67
2022/07/12 07:52:08;;;;;;;8.05;4.60;;;10.20;90.40;;;;;;5015906;28;20573;-66
2022/07/12 07:54:35;;;;;;;11.50;5.25;;;10.20;90.10;;;;;;5010702;28;20065;-66
2022/07/12 07:57:02;;;;;;;13.05;4.00;;;10.30;90.20;;;;;;5003729;28;20030;-66
2022/07/12 07:59:29;;;;;;;8.25;3.65;;;10.30;89.90;;;;;;5004023;28;20406;-67
2022/07/12 08:01:57;;;;;;;7.82;3.35;;;10.30;89.90;;;;;;5003538;28;20053;-66
2022/07/12 08:04:24;;;;;;;7.72;3.83;;;10.40;89.50;;;;;;5002495;28;20034;-66
2022/07/12 08:06:51;;;;;;;8.27;3.33;;;10.40;88.60;;;;;;5005399;28;20026;-67
2022/07/12 08:09:19;;;;;;;6.25;3.22;;;10.50;88.30;;;;;;5002240;28;20037;-66
2022/07/12 08:11:46;;;;;;;7.72;3.38;;;10.50;88.50;;;;;;4997392;28;20045;-67
2022/07/12 08:14:13;;;;;;;10.40;5.90;;;10.60;88.60;;;;;;5013452;28;20201;-66
2022/07/12 08:16:40;;;;;;;8.52;4.57;;;10.60;88.80;;;;;;5011736;28;20571;-65
2022/07/12 08:19:08;;;;;;;5.18;3.47;;;10.60;88.70;;;;;;5004359;28;20029;-66
2022/07/12 08:21:35;;;;;;;7.93;4.43;;;10.50;88.80;;;;;;5002426;28;20080;-68
2022/07/12 08:24:02;;;;;;;9.23;4.47;;;10.50;88.80;;;;;;5012954;28;20034;-66
2022/07/12 08:26:29;;;;;;;10.88;6.10;;;10.50;89.20;;;;;;5019546;28;20067;-68
2022/07/12 08:28:57;;;;;;;14.13;6.15;;;10.40;89.70;;;;;;5021610;28;20771;-67
2022/07/12 08:31:24;;;;;;;10.70;5.25;;;10.30;90.10;;;;;;5016476;28;20036;-66
2022/07/12 08:33:52;;;;;;;10.90;4.95;;;10.30;90.30;;;;;;5019998;28;20033;-66
2022/07/12 08:36:19;;;;;;;44.38;23.52;;;10.20;90.40;;;;;;5013995;28;20052;-67
2022/07/12 08:38:47;;;;;;;40.67;20.35;;;10.10;90.70;;;;;;5010533;28;20046;-68
2022/07/12 08:41:14;;;;;;;16.70;9.63;;;10.10;91.20;;;;;;5018014;28;20030;-59
2022/07/12 08:43:42;;;;;;;42.75;22.85;;;10.10;91.30;;;;;;5006780;28;20069;-62
2022/07/12 08:46:12;;;;;;;34.72;17.13;;;10.10;91.40;;;;;;5012973;28;20041;-62
2022/07/12 08:48:40;;;;;;;15.73;6.47;;;10.00;91.70;;;;;;5012116;28;20086;-62
2022/07/12 08:51:10;;;;;;;13.18;7.07;;;10.10;92.00;;;;;;5011796;28;20025;-63
2022/07/12 08:53:38;;;;;;;8.07;5.18;;;10.10;92.20;;;;;;5004496;28;20344;-62
2022/07/12 08:56:06;;;;;;;9.52;4.32;;;10.10;92.40;;;;;;5006257;28;20519;-63
2022/07/12 08:58:34;;;;;;;7.68;4.50;;;10.10;92.50;;;;;;5011252;28;20443;-63
2022/07/12 09:01:01;;;;;;;10.30;4.63;;;10.10;92.60;;;;;;5006840;28;20132;-63
2022/07/12 09:03:28;;;;;;;10.75;5.40;;;10.00;92.50;;;;;;5005144;28;20037;-66
2022/07/12 09:05:57;;;;;;;18.58;7.95;;;10.00;93.10;;;;;;5005396;28;20029;-64
2022/07/12 09:08:35;;;;;;;8.60;4.80;;;10.00;93.30;;;;;;5006565;28;20482;-63
2022/07/12 09:11:03;;;;;;;9.07;5.30;;;9.90;93.30;;;;;;5001837;28;20038;-63
2022/07/12 09:14:07;;;;;;;12.82;7.78;;;9.90;93.30;;;;;;5002364;28;20029;-64
2022/07/12 09:16:37;;;;;;;8.48;5.25;;;9.80;93.20;;;;;;4961169;28;20035;-65
2022/07/12 09:19:19;;;;;;;10.57;8.15;;;9.70;93.30;;;;;;4999419;28;20034;-63
2022/07/12 09:21:51;;;;;;;11.82;5.72;;;9.70;93.60;;;;;;5007471;28;20037;-62
2022/07/12 09:24:20;;;;;;;11.63;5.65;;;9.70;93.70;;;;;;5005560;28;20129;-62
2022/07/12 09:26:58;;;;;;;8.85;5.30;;;9.70;93.80;;;;;;5000639;28;20033;-63
2022/07/12 09:29:27;;;;;;;8.45;4.20;;;9.70;93.90;;;;;;5016753;28;20029;-63
2022/07/12 09:37:27;;;;;;;11.30;8.32;;;9.70;94.10;;;;;;5003277;28;20045;-64
2022/07/12 09:39:55;;;;;;;11.70;6.05;;;9.80;94.10;;;;;;5005499;28;20065;-63
2022/07/12 09:42:26;;;;;;;12.48;5.88;;;9.80;94.00;;;;;;5005639;28;20028;-64
2022/07/12 09:44:56;;;;;;;12.65;6.80;;;9.80;94.10;;;;;;5011849;28;20036;-63
2022/07/12 09:47:25;;;;;;;16.58;7.25;;;9.80;94.00;;;;;;5012947;28;20160;-64
2022/07/12 09:49:53;;;;;;;9.70;5.97;;;9.70;93.90;;;;;;5005934;28;20021;-65
2022/07/12 09:52:28;;;;;;;14.32;7.25;;;9.70;94.00;;;;;;5016515;28;20044;-63
2022/07/12 09:54:56;;;;;;;15.65;7.30;;;9.60;94.10;;;;;;5014571;28;20063;-64
2022/07/12 09:57:30;;;;;;;13.75;6.75;;;9.60;94.20;;;;;;5025718;28;20049;-64
2022/07/12 09:59:59;;;;;;;12.40;6.73;;;9.50;94.50;;;;;;5016648;28;20049;-64
2022/07/12 10:02:27;;;;;;;11.90;6.43;;;9.50;94.70;;;;;;5019787;28;20478;-64
2022/07/12 10:04:55;;;;;;;12.40;6.43;;;9.50;95.30;;;;;;5020051;28;20031;-64
2022/07/12 10:07:23;;;;;;;10.77;6.18;;;9.60;95.60;;;;;;5019599;28;20037;-63
2022/07/12 10:09:55;;;;;;;12.30;5.75;;;9.70;95.50;;;;;;5015465;28;20022;-64
2022/07/12 10:12:24;;;;;;;9.32;6.20;;;9.60;95.40;;;;;;5026390;28;20121;-64
2022/07/12 10:15:02;;;;;;;11.57;6.10;;;9.60;95.40;;;;;;5012429;28;20033;-63
2022/07/12 10:17:33;;;;;;;11.18;6.18;;;9.60;95.10;;;;;;5015385;28;20032;-63
2022/07/12 10:20:22;;;;;;;10.63;6.78;;;9.50;94.90;;;;;;5023637;28;20478;-63
2022/07/12 10:22:50;;;;;;;7.55;5.32;;;9.40;95.00;;;;;;5013129;28;20033;-63
2022/07/12 10:25:33;;;;;;;11.43;5.50;;;9.40;95.30;;;;;;5019179;28;20026;-62
2022/07/12 10:28:02;;;;;;;11.60;5.75;;;9.30;95.40;;;;;;5038584;28;20034;-63
2022/07/12 10:30:45;;;;;;;11.43;5.35;;;9.30;95.50;;;;;;5012998;28;20032;-64
2022/07/12 10:33:20;;;;;;;10.77;5.88;;;9.30;95.50;;;;;;5001139;28;20041;-62
2022/07/12 10:36:07;;;;;;;9.32;5.72;;;9.20;95.70;;;;;;5010701;28;20869;-62
2022/07/12 10:38:36;;;;;;;9.35;6.47;;;9.20;96.10;;;;;;5023830;28;20038;-62
2022/07/12 10:41:29;;;;;;;12.05;6.13;;;9.20;96.20;;;;;;4996531;28;20080;-62
2022/07/12 10:44:08;;;;;;;9.73;5.78;;;9.20;96.30;;;;;;5016247;28;20034;-62
2022/07/12 10:46:37;;;;;;;11.25;6.00;;;9.20;96.40;;;;;;5016278;28;20049;-62
2022/07/12 10:49:34;;;;;;;11.80;5.30;;;9.30;96.60;;;;;;5020596;28;20026;-63
2022/07/12 10:52:24;;;;;;;11.45;6.38;;;9.20;96.60;;;;;;5004708;28;20054;-62
2022/07/12 10:55:15;;;;;;;11.80;5.00;;;9.20;96.80;;;;;;5005617;28;20029;-64
2022/07/12 10:58:01;;;;;;;11.15;5.38;;;9.20;96.80;;;;;;5007628;28;20046;-62
2022/07/12 11:00:28;;;;;;;9.23;5.10;;;9.20;96.60;;;;;;5021124;28;20032;-68
2022/07/12 11:03:00;;;;;;;7.45;4.63;;;9.10;96.40;;;;;;5009460;28;20037;-63
2022/07/12 11:05:28;;;;;;;8.48;5.20;;;9.10;96.40;;;;;;5025794;28;20037;-63
2022/07/12 11:07:56;;;;;;;11.95;6.15;;;9.10;96.70;;;;;;5010321;28;20034;-60
2022/07/12 11:10:23;;;;;;;10.73;6.78;;;9.10;97.00;;;;;;5016428;28;20018;-64
2022/07/12 11:12:50;;;;;;;11.38;5.90;;;9.10;96.80;;;;;;5022240;28;20083;-64
2022/07/12 11:15:18;;;;;;;12.10;7.00;;;9.10;96.80;;;;;;5018265;28;20555;-65
2022/07/12 11:17:48;;;;;;;14.13;6.50;;;9.10;97.00;;;;;;5006401;28;20040;-63
2022/07/12 11:20:18;;;;;;;12.43;6.35;;;9.10;97.30;;;;;;5012778;28;20029;-63
2022/07/12 11:22:53;;;;;;;11.95;6.28;;;9.10;97.40;;;;;;4997005;28;20056;-63
2022/07/12 11:25:27;;;;;;;10.25;6.13;;;9.20;97.20;;;;;;5011338;28;20030;-64
2022/07/12 11:27:57;;;;;;;10.90;6.32;;;9.20;97.10;;;;;;5020259;28;20142;-64
2022/07/12 11:30:27;;;;;;;8.98;5.68;;;9.20;96.90;;;;;;5024430;28;20033;-64
2022/07/12 11:32:58;;;;;;;9.73;5.68;;;9.30;96.80;;;;;;5014109;28;20095;-64
2022/07/12 11:35:26;;;;;;;7.95;5.28;;;9.30;96.80;;;;;;5021225;28;20132;-63
2022/07/12 11:37:58;;;;;;;7.10;4.72;;;9.30;96.50;;;;;;5022868;28;20044;-64
2022/07/12 11:40:30;;;;;;;9.50;5.18;;;9.40;96.10;;;;;;5010329;28;20389;-64
2022/07/12 11:42:59;;;;;;;7.47;5.00;;;9.40;95.90;;;;;;5009747;28;20437;-65
2022/07/12 11:45:32;;;;;;;6.05;3.78;;;9.40;95.90;;;;;;5002046;28;20396;-64
2022/07/12 11:48:03;;;;;;;7.15;4.13;;;9.40;95.80;;;;;;5010380;28;20046;-62
2022/07/12 11:50:34;;;;;;;7.03;4.47;;;9.40;95.80;;;;;;5017151;28;20117;-63
2022/07/12 11:53:04;;;;;;;6.03;4.10;;;9.40;95.80;;;;;;5020581;28;20030;-63
2022/07/12 11:55:32;;;;;;;6.97;4.03;;;9.40;95.50;;;;;;5012217;28;20022;-63
2022/07/12 11:58:15;;;;;;;7.60;4.43;;;9.40;95.30;;;;;;5038755;28;20112;-64
2022/07/12 12:00:43;;;;;;;10.77;4.50;;;9.40;95.40;;;;;;4998296;28;20025;-63
2022/07/12 12:03:12;;;;;;;9.25;4.63;;;9.40;95.50;;;;;;5022448;28;20632;-64
2022/07/12 12:05:40;;;;;;;9.20;4.63;;;9.50;95.50;;;;;;5026741;28;20057;-64
2022/07/12 12:08:10;;;;;;;8.75;4.93;;;9.50;95.50;;;;;;5017902;28;20116;-65
2022/07/12 12:10:42;;;;;;;10.20;4.35;;;9.50;95.40;;;;;;5020486;28;20048;-64
2022/07/12 12:13:18;;;;;;;9.27;4.68;;;9.50;95.20;;;;;;5009068;28;20030;-64
2022/07/12 12:15:53;;;;;;;22.30;13.98;;;9.50;95.20;;;;;;5003891;28;20045;-65
2022/07/12 12:18:40;;;;;;;42.78;25.58;;;9.60;95.40;;;;;;5011996;28;20026;-64
2022/07/12 12:21:12;;;;;;;28.00;17.90;;;9.60;95.30;;;;;;5003844;28;20095;-66
2022/07/12 12:23:41;;;;;;;13.55;7.97;;;9.60;95.20;;;;;;5008534;28;20036;-65
2022/07/12 12:26:11;;;;;;;8.02;5.28;;;9.60;94.90;;;;;;5008397;28;20466;-65
2022/07/12 12:28:49;;;;;;;9.45;4.65;;;9.60;94.80;;;;;;5014713;28;20021;-66
2022/07/12 12:31:18;;;;;;;7.78;4.93;;;9.60;94.90;;;;;;5015779;28;20032;-65
2022/07/12 12:33:56;;;;;;;10.23;5.28;;;9.60;95.00;;;;;;5015798;28;20037;-65
2022/07/12 12:36:25;;;;;;;9.63;4.90;;;9.70;95.00;;;;;;5009646;28;20049;-65
2022/07/12 12:38:56;;;;;;;8.50;5.07;;;9.60;95.20;;;;;;5022380;28;20117;-66
2022/07/12 12:41:30;;;;;;;9.65;5.43;;;9.60;95.20;;;;;;5014532;28;20025;-65
2022/07/12 12:44:03;;;;;;;14.52;5.40;;;9.60;95.20;;;;;;5010092;28;20030;-65
2022/07/12 12:49:51;;;;;;;8.60;5.10;;;9.80;95.20;;;;;;5015555;28;20052;-65
2022/07/12 12:52:19;;;;;;;9.27;5.30;;;9.70;95.20;;;;;;5019568;28;20029;-65
2022/07/12 12:54:47;;;;;;;6.95;4.95;;;9.60;95.10;;;;;;5017906;28;20026;-65
2022/07/12 12:57:14;;;;;;;8.88;5.30;;;9.60;95.10;;;;;;5015955;28;20056;-65
2022/07/12 12:59:41;;;;;;;7.55;4.97;;;9.60;95.20;;;;;;5017690;28;20022;-65
2022/07/12 13:02:09;;;;;;;10.85;5.82;;;9.60;95.30;;;;;;5014681;28;20026;-67
2022/07/12 13:04:38;;;;;;;11.48;5.93;;;9.60;95.40;;;;;;5018137;28;20419;-65
2022/07/12 13:07:09;;;;;;;10.55;5.80;;;9.60;95.60;;;;;;5009497;28;20076;-65
2022/07/12 13:09:37;;;;;;;16.55;8.40;;;9.50;95.70;;;;;;5019426;28;20040;-66